Time;durP1;ratioP1;P1;durP2;ratioP2;P2;SDS_P1;SDS_P2;PMS_P1;PMS_P2;Temp;Humidity;BMP_temperature;BMP_pressure;BME280_temperature;BME280_humidity;BME280_pressure;Samples;Min_cycle;Max_cycle;Signal;HPM_P1;HPM_P2
2023/11/19 00:01:39;;;;;;;;;;;;;;;;;;6294210;28;19913;-87
2023/11/19 00:04:39;;;;;;;;;;;;;;;;;;6300089;28;19994;-87
2023/11/19 00:07:41;;;;;;;;;;;;;;;;;;6276487;28;19959;-86
2023/11/19 00:10:41;;;;;;;;;;;;;;;;;;6291702;28;19912;-86
2023/11/19 00:13:41;;;;;;;;;;;;;;;;;;6279459;28;20388;-87
2023/11/19 00:16:41;;;;;;;;;;;;;;;;;;6300686;28;20007;-86
2023/11/19 00:19:41;;;;;;;;;;;;;;;;;;6297642;28;19923;-87
2023/11/19 00:22:42;;;;;;;;;;;;;;;;;;6300082;28;19916;-87
2023/11/19 00:25:42;;;;;;;;;;;;;;;;;;6299013;28;19920;-87
2023/11/19 00:28:43;;;;;;;;;;;;;;;;;;6299014;28;20290;-87
2023/11/19 00:31:43;;;;;;;;;;;;;;;;;;6300614;28;19908;-88
2023/11/19 00:34:44;;;;;;;;;;;;;;;;;;6297268;28;19970;-87
2023/11/19 00:37:45;;;;;;;;;;;;;;;;;;6293537;28;20345;-87
2023/11/19 00:40:45;;;;;;;;;;;;;;;;;;6284480;28;19927;-87
2023/11/19 00:43:45;;;;;;;;;;;;;;;;;;6297394;28;19920;-87
2023/11/19 00:46:45;;;;;;;;;;;;;;;;;;6283153;28;19909;-87
2023/11/19 00:49:45;;;;;;;;;;;;;;;;;;5939865;28;10000367;-87
2023/11/19 00:52:47;;;;;;;;;;;;;;;;;;6287801;28;20388;-87
2023/11/19 00:55:47;;;;;;;;;;;;;;;;;;6292146;28;19935;-87
2023/11/19 00:58:47;;;;;;;;;;;;;;;;;;6289784;28;19913;-86
2023/11/19 01:01:48;;;;;;;;;;;;;;;;;;6276235;28;19956;-87
2023/11/19 01:04:48;;;;;;;;;;;;;;;;;;6275097;28;20332;-87
2023/11/19 01:07:48;;;;;;;;;;;;;;;;;;6291317;28;19916;-87
2023/11/19 01:10:48;;;;;;;;;;;;;;;;;;6275788;28;19916;-87
2023/11/19 01:13:48;;;;;;;;;;;;;;;;;;6277083;28;20382;-87
2023/11/19 01:16:48;;;;;;;;;;;;;;;;;;6275801;28;19916;-87
2023/11/19 01:19:50;;;;;;;;;;;;;;;;;;6274940;28;19909;-87
2023/11/19 01:22:50;;;;;;;;;;;;;;;;;;6280016;28;19938;-87
2023/11/19 01:25:50;;;;;;;;;;;;;;;;;;6299824;28;19928;-87
2023/11/19 01:28:52;;;;;;;;;;;;;;;;;;6300227;28;19909;-87
2023/11/19 01:31:52;;;;;;;;;;;;;;;;;;6281838;28;19999;-87
2023/11/19 01:34:52;;;;;;;;;;;;;;;;;;6299340;28;20280;-87
2023/11/19 01:37:53;;;;;;;;;;;;;;;;;;6300649;28;19909;-87
2023/11/19 01:40:53;;;;;;;;;;;;;;;;;;6299772;28;19969;-85
2023/11/19 01:43:54;;;;;;;;;;;;;;;;;;6294296;28;20043;-85
2023/11/19 01:46:54;;;;;;;;;;;;;;;;;;6288055;28;20376;-84
2023/11/19 01:49:54;;;;;;;;;;;;;;;;;;6273164;28;19913;-85
2023/11/19 01:52:54;;;;;;;;;;;;;;;;;;6288581;28;19908;-85
2023/11/19 01:55:55;;;;;;;;;;;;;;;;;;6299196;28;19916;-85
2023/11/19 01:58:55;;;;;;;;;;;;;;;;;;6298568;28;20003;-85
2023/11/19 02:01:57;;;;;;;;;;;;;;;;;;6299304;28;19909;-85
2023/11/19 02:04:57;;;;;;;;;;;;;;;;;;6268450;28;19924;-85
2023/11/19 02:07:57;;;;;;;;;;;;;;;;;;6273843;28;19916;-85
2023/11/19 02:10:57;;;;;;;;;;;;;;;;;;6274019;28;20277;-84
2023/11/19 02:13:57;;;;;;;;;;;;;;;;;;6278931;28;20004;-84
2023/11/19 02:16:57;;;;;;;;;;;;;;;;;;6277799;28;20015;-84
2023/11/19 02:19:58;;;;;;;;;;;;;;;;;;6287129;28;20007;-85
2023/11/19 02:22:58;;;;;;;;;;;;;;;;;;6273554;28;19913;-85
2023/11/19 02:25:58;;;;;;;;;;;;;;;;;;6274021;28;19920;-85
2023/11/19 02:28:58;;;;;;;;;;;;;;;;;;6281586;28;19908;-84
2023/11/19 02:31:58;;;;;;;;;;;;;;;;;;6297642;28;19908;-83
2023/11/19 02:34:58;;;;;;;;;;;;;;;;;;6295923;28;19912;-84
2023/11/19 02:38:03;;;;;;;;;;;;;;;;;;6276377;28;19955;-83
2023/11/19 02:41:05;;;;;;;;;;;;;;;;;;6274878;28;19932;-83
2023/11/19 02:44:05;;;;;;;;;;;;;;;;;;6294279;28;19955;-83
2023/11/19 02:47:07;;;;;;;;;;;;;;;;;;6297751;28;19930;-83
2023/11/19 02:50:13;;;;;;;;;;;;;;;;;;6289684;28;19962;-83
2023/11/19 02:53:13;;;;;;;;;;;;;;;;;;6288394;28;19961;-83
2023/11/19 02:56:25;;;;;;;;;;;;;;;;;;6269537;28;19913;-84
2023/11/19 02:59:38;;;;;;;;;;;;;;;;;;6287674;28;19909;-85
2023/11/19 03:02:44;;;;;;;;;;;;;;;;;;6298895;28;20268;-83
2023/11/19 03:05:44;;;;;;;;;;;;;;;;;;6295409;28;19923;-84
2023/11/19 03:08:45;;;;;;;;;;;;;;;;;;6296970;28;19908;-84
2023/11/19 03:11:45;;;;;;;;;;;;;;;;;;6296313;28;19912;-84
2023/11/19 03:14:47;;;;;;;;;;;;;;;;;;6299931;28;19908;-86
2023/11/19 03:17:48;;;;;;;;;;;;;;;;;;6301971;28;19915;-84
2023/11/19 03:20:49;;;;;;;;;;;;;;;;;;6300533;28;19955;-84
2023/11/19 03:23:49;;;;;;;;;;;;;;;;;;6301712;28;19927;-84
2023/11/19 03:26:52;;;;;;;;;;;;;;;;;;6301283;28;19912;-84
2023/11/19 03:29:52;;;;;;;;;;;;;;;;;;6291446;28;20377;-84
2023/11/19 03:32:52;;;;;;;;;;;;;;;;;;6290481;28;19912;-84
2023/11/19 03:35:53;;;;;;;;;;;;;;;;;;6299399;28;19958;-84
2023/11/19 03:38:53;;;;;;;;;;;;;;;;;;6300638;28;19916;-84
2023/11/19 03:41:53;;;;;;;;;;;;;;;;;;6300238;28;19995;-84
2023/11/19 03:44:53;;;;;;;;;;;;;;;;;;6300882;28;20445;-84
2023/11/19 03:47:53;;;;;;;;;;;;;;;;;;6300004;28;19912;-84
2023/11/19 03:50:54;;;;;;;;;;;;;;;;;;6298182;28;19920;-84
2023/11/19 03:53:54;;;;;;;;;;;;;;;;;;6300255;28;20423;-84
2023/11/19 03:56:54;;;;;;;;;;;;;;;;;;6300962;28;19947;-84
2023/11/19 03:59:55;;;;;;;;;;;;;;;;;;6300952;28;19932;-88
2023/11/19 04:02:55;;;;;;;;;;;;;;;;;;6301057;28;19909;-89
2023/11/19 04:05:56;;;;;;;;;;;;;;;;;;6277498;28;20396;-89
2023/11/19 04:08:56;;;;;;;;;;;;;;;;;;6301735;28;19909;-90
2023/11/19 04:11:56;;;;;;;;;;;;;;;;;;6301762;28;19909;-89
2023/11/19 04:14:56;;;;;;;;;;;;;;;;;;6301798;28;20337;-87
2023/11/19 04:17:56;;;;;;;;;;;;;;;;;;6302273;28;19915;-89
2023/11/19 04:20:56;;;;;;;;;;;;;;;;;;6299472;28;19913;-89
2023/11/19 04:23:57;;;;;;;;;;;;;;;;;;6289309;28;19920;-90
2023/11/19 04:26:57;;;;;;;;;;;;;;;;;;6279452;28;19913;-89
2023/11/19 04:29:57;;;;;;;;;;;;;;;;;;6278914;28;19916;-89
2023/11/19 04:32:57;;;;;;;;;;;;;;;;;;6277666;28;19909;-89
2023/11/19 04:35:57;;;;;;;;;;;;;;;;;;6275030;28;19916;-90
2023/11/19 04:38:59;;;;;;;;;;;;;;;;;;6285885;28;19913;-89
2023/11/19 04:41:59;;;;;;;;;;;;;;;;;;6295332;28;20389;-89
2023/11/19 04:44:59;;;;;;;;;;;;;;;;;;6300984;28;19917;-89
2023/11/19 04:47:59;;;;;;;;;;;;;;;;;;6303032;28;19912;-89
2023/11/19 04:50:59;;;;;;;;;;;;;;;;;;6303291;28;19916;-89
2023/11/19 04:54:00;;;;;;;;;;;;;;;;;;6303737;28;19909;-89
2023/11/19 04:57:00;;;;;;;;;;;;;;;;;;6291840;28;19912;-89
2023/11/19 05:00:00;;;;;;;;;;;;;;;;;;6299672;28;20278;-89
2023/11/19 05:03:00;;;;;;;;;;;;;;;;;;6286355;28;19921;-89
2023/11/19 05:06:00;;;;;;;;;;;;;;;;;;6276992;28;19925;-89
2023/11/19 05:09:01;;;;;;;;;;;;;;;;;;6278230;28;19915;-89
2023/11/19 05:12:01;;;;;;;;;;;;;;;;;;6288049;28;20006;-89
2023/11/19 05:15:02;;;;;;;;;;;;;;;;;;6301860;28;19908;-89
2023/11/19 05:18:02;;;;;;;;;;;;;;;;;;6307849;28;19977;-89
2023/11/19 05:21:02;;;;;;;;;;;;;;;;;;6275593;28;19913;-89
2023/11/19 05:24:05;;;;;;;;;;;;;;;;;;6268578;28;19924;-89
2023/11/19 05:27:06;;;;;;;;;;;;;;;;;;6276827;28;19915;-89
2023/11/19 05:30:07;;;;;;;;;;;;;;;;;;6293020;28;20293;-89
2023/11/19 05:33:08;;;;;;;;;;;;;;;;;;6299416;28;19962;-90
2023/11/19 05:36:08;;;;;;;;;;;;;;;;;;6288711;28;19935;-89
2023/11/19 05:39:08;;;;;;;;;;;;;;;;;;6287513;28;19919;-90
2023/11/19 05:42:09;;;;;;;;;;;;;;;;;;6299236;28;19912;-89
2023/11/19 05:45:09;;;;;;;;;;;;;;;;;;6297745;28;20007;-89
2023/11/19 05:48:09;;;;;;;;;;;;;;;;;;6292473;28;19908;-90
2023/11/19 05:51:10;;;;;;;;;;;;;;;;;;6274546;28;19962;-89
2023/11/19 05:54:10;;;;;;;;;;;;;;;;;;6299309;28;20385;-89
2023/11/19 05:57:10;;;;;;;;;;;;;;;;;;6299317;28;19991;-89
2023/11/19 06:00:10;;;;;;;;;;;;;;;;;;6302529;28;19908;-91
2023/11/19 06:03:10;;;;;;;;;;;;;;;;;;6300849;28;19908;-89
2023/11/19 06:06:12;;;;;;;;;;;;;;;;;;6297994;28;19909;-89
2023/11/19 06:09:12;;;;;;;;;;;;;;;;;;6300914;28;19973;-89
2023/11/19 06:12:14;;;;;;;;;;;;;;;;;;6300791;28;19912;-89
2023/11/19 06:15:14;;;;;;;;;;;;;;;;;;6300233;28;19909;-89
2023/11/19 06:18:14;;;;;;;;;;;;;;;;;;6302020;28;20268;-89
2023/11/19 06:21:14;;;;;;;;;;;;;;;;;;6276478;28;20341;-85
2023/11/19 06:24:14;;;;;;;;;;;;;;;;;;6289807;28;20353;-85
2023/11/19 06:27:14;;;;;;;;;;;;;;;;;;6283381;28;20361;-84
2023/11/19 06:30:15;;;;;;;;;;;;;;;;;;6273209;28;19909;-85
2023/11/19 06:33:15;;;;;;;;;;;;;;;;;;6288493;28;19909;-85
2023/11/19 06:36:16;;;;;;;;;;;;;;;;;;6286967;28;19977;-85
2023/11/19 06:39:17;;;;;;;;;;;;;;;;;;6296653;28;20335;-85
2023/11/19 06:42:17;;;;;;;;;;;;;;;;;;6279360;28;19909;-85
2023/11/19 06:45:17;;;;;;;;;;;;;;;;;;6298398;28;19920;-84
2023/11/19 06:48:18;;;;;;;;;;;;;;;;;;6301331;28;20357;-85
2023/11/19 06:51:18;;;;;;;;;;;;;;;;;;6284495;28;19916;-84
2023/11/19 06:54:18;;;;;;;;;;;;;;;;;;6292252;28;19920;-84
2023/11/19 06:57:18;;;;;;;;;;;;;;;;;;6288094;28;20344;-84
2023/11/19 07:00:18;;;;;;;;;;;;;;;;;;6280629;28;19915;-85
2023/11/19 07:03:20;;;;;;;;;;;;;;;;;;6299512;28;20369;-84
2023/11/19 07:06:20;;;;;;;;;;;;;;;;;;6300517;28;19909;-84
2023/11/19 07:09:21;;;;;;;;;;;;;;;;;;6302586;28;20043;-84
2023/11/19 07:12:21;;;;;;;;;;;;;;;;;;6280736;28;20019;-84
2023/11/19 07:15:21;;;;;;;;;;;;;;;;;;6309298;28;20359;-84
2023/11/19 07:18:21;;;;;;;;;;;;;;;;;;6302090;28;20412;-84
2023/11/19 07:21:22;;;;;;;;;;;;;;;;;;6282131;28;19928;-85
2023/11/19 07:24:22;;;;;;;;;;;;;;;;;;6304900;28;20401;-84
2023/11/19 07:27:24;;;;;;;;;;;;;;;;;;6300541;28;20438;-85
2023/11/19 07:30:24;;;;;;;;;;;;;;;;;;6301446;28;20392;-85
2023/11/19 07:33:24;;;;;;;;;;;;;;;;;;6278838;28;19908;-84
2023/11/19 07:36:24;;;;;;;;;;;;;;;;;;6272703;28;19913;-85
2023/11/19 07:39:24;;;;;;;;;;;;;;;;;;6300695;28;19920;-85
2023/11/19 07:42:24;;;;;;;;;;;;;;;;;;6276971;28;19909;-84
2023/11/19 07:45:25;;;;;;;;;;;;;;;;;;6287283;28;19921;-84
2023/11/19 07:48:25;;;;;;;;;;;;;;;;;;6276642;28;19909;-84
2023/11/19 07:51:25;;;;;;;;;;;;;;;;;;6274668;28;20273;-84
2023/11/19 07:54:25;;;;;;;;;;;;;;;;;;6289120;28;20321;-85
2023/11/19 07:57:27;;;;;;;;;;;;;;;;;;6275386;28;19916;-84
2023/11/19 08:00:27;;;;;;;;;;;;;;;;;;6298948;28;20436;-84
2023/11/19 08:03:27;;;;;;;;;;;;;;;;;;6291867;28;19943;-84
2023/11/19 08:06:27;;;;;;;;;;;;;;;;;;6287903;28;19908;-84
2023/11/19 08:09:28;;;;;;;;;;;;;;;;;;6307075;28;19912;-84
2023/11/19 08:12:28;;;;;;;;;;;;;;;;;;6326123;28;20326;-85
2023/11/19 08:15:28;;;;;;;;;;;;;;;;;;6286770;28;19913;-85
2023/11/19 08:18:28;;;;;;;;;;;;;;;;;;6297506;28;19912;-85
2023/11/19 08:21:28;;;;;;;;;;;;;;;;;;6293678;28;19913;-85
2023/11/19 08:24:28;;;;;;;;;;;;;;;;;;6300170;28;20281;-85
2023/11/19 08:27:28;;;;;;;;;;;;;;;;;;6301419;28;19962;-85
2023/11/19 08:30:28;;;;;;;;;;;;;;;;;;6298491;28;19913;-85
2023/11/19 08:33:29;;;;;;;;;;;;;;;;;;6301663;28;19915;-85
2023/11/19 08:36:31;;;;;;;;;;;;;;;;;;6285139;28;19913;-84
2023/11/19 08:39:31;;;;;;;;;;;;;;;;;;6276428;28;19925;-84
2023/11/19 08:42:31;;;;;;;;;;;;;;;;;;6289944;28;20281;-88
2023/11/19 08:45:32;;;;;;;;;;;;;;;;;;6301503;28;19943;-89
2023/11/19 08:48:32;;;;;;;;;;;;;;;;;;6301256;28;19917;-89
2023/11/19 08:51:32;;;;;;;;;;;;;;;;;;6284420;28;19959;-88
2023/11/19 08:54:33;;;;;;;;;;;;;;;;;;6299805;28;20375;-89
2023/11/19 08:57:33;;;;;;;;;;;;;;;;;;6302144;28;19963;-89
2023/11/19 09:00:33;;;;;;;;;;;;;;;;;;6301456;28;19959;-89
2023/11/19 09:03:33;;;;;;;;;;;;;;;;;;6300386;28;19920;-89
2023/11/19 09:06:33;;;;;;;;;;;;;;;;;;6298460;28;20416;-89
2023/11/19 09:09:35;;;;;;;;;;;;;;;;;;6299425;28;19908;-89
2023/11/19 09:12:35;;;;;;;;;;;;;;;;;;6301787;28;19935;-89
2023/11/19 09:15:35;;;;;;;;;;;;;;;;;;6300538;28;20323;-89
2023/11/19 09:18:36;;;;;;;;;;;;;;;;;;6301268;28;19916;-88
2023/11/19 09:21:38;;;;;;;;;;;;;;;;;;6298623;28;20349;-89
2023/11/19 09:24:38;;;;;;;;;;;;;;;;;;6286601;28;19920;-88
2023/11/19 09:27:38;;;;;;;;;;;;;;;;;;6299609;28;19965;-88
2023/11/19 09:30:38;;;;;;;;;;;;;;;;;;6300726;28;19909;-89
2023/11/19 09:33:39;;;;;;;;;;;;;;;;;;6300645;28;19915;-89
2023/11/19 09:36:43;;;;;;;;;;;;;;;;;;6298391;28;20011;-89
2023/11/19 09:39:43;;;;;;;;;;;;;;;;;;6297722;28;19921;-88
2023/11/19 09:42:46;;;;;;;;;;;;;;;;;;6299336;28;19908;-88
2023/11/19 09:45:46;;;;;;;;;;;;;;;;;;6300385;28;19917;-88
2023/11/19 09:48:48;;;;;;;;;;;;;;;;;;6300627;28;19919;-88
2023/11/19 09:51:49;;;;;;;;;;;;;;;;;;6277786;28;19916;-88
2023/11/19 09:54:49;;;;;;;;;;;;;;;;;;6295542;28;19909;-88
2023/11/19 09:57:49;;;;;;;;;;;;;;;;;;6298896;28;19912;-89
2023/11/19 10:00:49;;;;;;;;;;;;;;;;;;6297171;28;19912;-88
2023/11/19 10:03:49;;;;;;;;;;;;;;;;;;6298259;28;19924;-88
2023/11/19 10:06:49;;;;;;;;;;;;;;;;;;6295908;28;19913;-88
2023/11/19 10:09:49;;;;;;;;;;;;;;;;;;6297987;28;19915;-88
2023/11/19 10:12:49;;;;;;;;;;;;;;;;;;6299770;28;19909;-89
2023/11/19 10:15:50;;;;;;;;;;;;;;;;;;6279798;28;20049;-88
2023/11/19 10:18:50;;;;;;;;;;;;;;;;;;6279576;28;19919;-88
2023/11/19 10:21:50;;;;;;;;;;;;;;;;;;6275686;28;19996;-88
2023/11/19 10:24:51;;;;;;;;;;;;;;;;;;6297535;28;20402;-88
2023/11/19 10:27:51;;;;;;;;;;;;;;;;;;6300274;28;20283;-88
2023/11/19 10:30:56;;;;;;;;;;;;;;;;;;6300128;28;19908;-88
2023/11/19 10:33:56;;;;;;;;;;;;;;;;;;6297846;28;19909;-88
2023/11/19 10:36:56;;;;;;;;;;;;;;;;;;6298090;28;19913;-88
2023/11/19 10:39:56;;;;;;;;;;;;;;;;;;6296966;28;19920;-88
2023/11/19 10:42:57;;;;;;;;;;;;;;;;;;6283794;28;19909;-88
2023/11/19 10:45:57;;;;;;;;;;;;;;;;;;6275248;28;19975;-89
2023/11/19 10:48:57;;;;;;;;;;;;;;;;;;6273440;28;20003;-88
2023/11/19 10:51:57;;;;;;;;;;;;;;;;;;6290441;28;19908;-87
2023/11/19 10:54:57;;;;;;;;;;;;;;;;;;6299253;28;19912;-87
2023/11/19 10:57:57;;;;;;;;;;;;;;;;;;6299308;28;19957;-87
2023/11/19 11:00:58;;;;;;;;;;;;;;;;;;6298452;28;19919;-88
2023/11/19 11:03:58;;;;;;;;;;;;;;;;;;6321842;28;19916;-88
2023/11/19 11:06:59;;;;;;;;;;;;;;;;;;6307037;28;19963;-87
2023/11/19 11:09:59;;;;;;;;;;;;;;;;;;6280148;28;20356;-87
2023/11/19 11:12:59;;;;;;;;;;;;;;;;;;6277710;28;20008;-87
2023/11/19 11:15:59;;;;;;;;;;;;;;;;;;6298599;28;19940;-88
2023/11/19 11:18:59;;;;;;;;;;;;;;;;;;6298672;28;19940;-87
2023/11/19 11:21:59;;;;;;;;;;;;;;;;;;6295819;28;19918;-87
2023/11/19 11:24:59;;;;;;;;;;;;;;;;;;6285900;28;19932;-86
2023/11/19 11:28:00;;;;;;;;;;;;;;;;;;6299240;28;19915;-87
2023/11/19 11:31:00;;;;;;;;;;;;;;;;;;6298962;28;19909;-87
2023/11/19 11:34:00;;;;;;;;;;;;;;;;;;6303121;28;19909;-87
2023/11/19 11:37:00;;;;;;;;;;;;;;;;;;6301199;28;19909;-87
2023/11/19 11:40:00;;;;;;;;;;;;;;;;;;6303664;28;19983;-86
2023/11/19 11:43:00;;;;;;;;;;;;;;;;;;6270301;28;19919;-87
2023/11/19 11:46:03;;;;;;;;;;;;;;;;;;6277720;28;19939;-87
2023/11/19 11:49:03;;;;;;;;;;;;;;;;;;6281582;28;19912;-87
2023/11/19 11:52:04;;;;;;;;;;;;;;;;;;6292691;28;19913;-87
2023/11/19 11:55:04;;;;;;;;;;;;;;;;;;6302481;28;20380;-87
2023/11/19 11:58:04;;;;;;;;;;;;;;;;;;6295669;28;20011;-87
2023/11/19 12:01:05;;;;;;;;;;;;;;;;;;6296717;28;19919;-87
2023/11/19 12:04:05;;;;;;;;;;;;;;;;;;6301022;28;19923;-87
2023/11/19 12:07:06;;;;;;;;;;;;;;;;;;6298807;28;20400;-87
2023/11/19 12:10:07;;;;;;;;;;;;;;;;;;6302569;28;19972;-87
2023/11/19 12:13:07;;;;;;;;;;;;;;;;;;6302996;28;19908;-88
2023/11/19 12:16:08;;;;;;;;;;;;;;;;;;6301401;28;20392;-88
2023/11/19 12:19:08;;;;;;;;;;;;;;;;;;6302600;28;19920;-87
2023/11/19 12:22:08;;;;;;;;;;;;;;;;;;6301558;28;19912;-88
2023/11/19 12:25:16;;;;;;;;;;;;;;;;;;6297588;28;19925;-87
2023/11/19 12:28:17;;;;;;;;;;;;;;;;;;6284046;28;19909;-88
2023/11/19 12:31:17;;;;;;;;;;;;;;;;;;6283608;28;19916;-88
2023/11/19 12:34:17;;;;;;;;;;;;;;;;;;6275081;28;19913;-88
2023/11/19 12:37:17;;;;;;;;;;;;;;;;;;6274664;28;20392;-87
2023/11/19 12:40:17;;;;;;;;;;;;;;;;;;6277571;28;19935;-88
2023/11/19 12:43:17;;;;;;;;;;;;;;;;;;6294682;28;19912;-88
2023/11/19 12:46:19;;;;;;;;;;;;;;;;;;6300298;28;19968;-88
2023/11/19 12:49:19;;;;;;;;;;;;;;;;;;6301647;28;19994;-88
2023/11/19 12:52:19;;;;;;;;;;;;;;;;;;6298329;28;19915;-88
2023/11/19 12:55:19;;;;;;;;;;;;;;;;;;6301109;28;19951;-88
2023/11/19 12:58:21;;;;;;;;;;;;;;;;;;6300875;28;20003;-88
2023/11/19 13:01:21;;;;;;;;;;;;;;;;;;6291988;28;20327;-88
2023/11/19 13:04:21;;;;;;;;;;;;;;;;;;6300239;28;20384;-88
2023/11/19 13:07:22;;;;;;;;;;;;;;;;;;6294681;28;20412;-87
2023/11/19 13:10:22;;;;;;;;;;;;;;;;;;6295363;28;20396;-88
2023/11/19 13:13:22;;;;;;;;;;;;;;;;;;6300642;28;19955;-88
2023/11/19 13:16:22;;;;;;;;;;;;;;;;;;6277312;28;20373;-89
2023/11/19 13:19:24;;;;;;;;;;;;;;;;;;6292572;28;20432;-89
2023/11/19 13:22:24;;;;;;;;;;;;;;;;;;6298545;28;19915;-89
2023/11/19 13:25:24;;;;;;;;;;;;;;;;;;6274931;28;19925;-89
2023/11/19 13:28:26;;;;;;;;;;;;;;;;;;6275376;28;19955;-88
2023/11/19 13:31:26;;;;;;;;;;;;;;;;;;6285769;28;19919;-87
2023/11/19 13:34:26;;;;;;;;;;;;;;;;;;6298964;28;19912;-88
2023/11/19 13:37:26;;;;;;;;;;;;;;;;;;6298425;28;19915;-88
2023/11/19 13:40:26;;;;;;;;;;;;;;;;;;6299224;28;19943;-88
2023/11/19 13:43:28;;;;;;;;;;;;;;;;;;6296580;28;19913;-88
2023/11/19 13:46:28;;;;;;;;;;;;;;;;;;6298992;28;19913;-88
2023/11/19 13:49:28;;;;;;;;;;;;;;;;;;6297506;28;20388;-88
2023/11/19 13:52:28;;;;;;;;;;;;;;;;;;6273269;28;19908;-87
2023/11/19 13:55:28;;;;;;;;;;;;;;;;;;6285892;28;20280;-87
2023/11/19 13:58:28;;;;;;;;;;;;;;;;;;6291421;28;20365;-88
2023/11/19 14:01:28;;;;;;;;;;;;;;;;;;6300268;28;19949;-88
2023/11/19 14:04:29;;;;;;;;;;;;;;;;;;6323488;28;20406;-87
2023/11/19 14:07:29;;;;;;;;;;;;;;;;;;6299356;28;20003;-88
2023/11/19 14:10:29;;;;;;;;;;;;;;;;;;6291568;28;20007;-87
2023/11/19 14:13:29;;;;;;;;;;;;;;;;;;6279243;28;19999;-87
2023/11/19 14:16:29;;;;;;;;;;;;;;;;;;6298875;28;19943;-88
2023/11/19 14:19:29;;;;;;;;;;;;;;;;;;6297529;28;19909;-88
2023/11/19 14:22:30;;;;;;;;;;;;;;;;;;6296843;28;20475;-87
2023/11/19 14:25:30;;;;;;;;;;;;;;;;;;6296164;28;19928;-87
2023/11/19 14:28:31;;;;;;;;;;;;;;;;;;6276841;28;19995;-87
2023/11/19 14:31:32;;;;;;;;;;;;;;;;;;6272162;28;20273;-87
2023/11/19 14:34:32;;;;;;;;;;;;;;;;;;6295510;28;19913;-86
2023/11/19 14:37:32;;;;;;;;;;;;;;;;;;6297595;28;19966;-87
2023/11/19 14:40:32;;;;;;;;;;;;;;;;;;6308330;28;19924;-87
2023/11/19 14:43:32;;;;;;;;;;;;;;;;;;6284313;28;20250;-88
2023/11/19 14:46:35;;;;;;;;;;;;;;;;;;6295062;28;20125;-88
2023/11/19 14:49:35;;;;;;;;;;;;;;;;;;6288887;28;19924;-87
2023/11/19 14:52:36;;;;;;;;;;;;;;;;;;6295509;28;19916;-87
2023/11/19 14:55:36;;;;;;;;;;;;;;;;;;6303255;28;19908;-87
2023/11/19 14:58:37;;;;;;;;;;;;;;;;;;6299965;28;19908;-88
2023/11/19 15:01:37;;;;;;;;;;;;;;;;;;6294618;28;19912;-87
2023/11/19 15:04:37;;;;;;;;;;;;;;;;;;6324127;28;19938;-88
2023/11/19 15:07:37;;;;;;;;;;;;;;;;;;6298390;28;19952;-87
2023/11/19 15:10:37;;;;;;;;;;;;;;;;;;6299194;28;19919;-87
2023/11/19 15:13:40;;;;;;;;;;;;;;;;;;6286352;28;19915;-87
2023/11/19 15:16:40;;;;;;;;;;;;;;;;;;6303355;28;19908;-87
2023/11/19 15:19:40;;;;;;;;;;;;;;;;;;6326220;28;20369;-87
2023/11/19 15:22:41;;;;;;;;;;;;;;;;;;6306856;28;19912;-88
2023/11/19 15:25:41;;;;;;;;;;;;;;;;;;6303644;28;19916;-87
2023/11/19 15:28:41;;;;;;;;;;;;;;;;;;6309223;28;20345;-86
2023/11/19 15:31:41;;;;;;;;;;;;;;;;;;6315330;28;20293;-87
2023/11/19 15:34:41;;;;;;;;;;;;;;;;;;6321731;28;19912;-87
2023/11/19 15:37:44;;;;;;;;;;;;;;;;;;6300061;28;19939;-87
2023/11/19 15:40:45;;;;;;;;;;;;;;;;;;6301334;28;20297;-87
2023/11/19 15:43:46;;;;;;;;;;;;;;;;;;6295403;28;19943;-87
2023/11/19 15:46:46;;;;;;;;;;;;;;;;;;6283718;28;19917;-87
2023/11/19 15:49:48;;;;;;;;;;;;;;;;;;6295968;28;20424;-87
2023/11/19 15:52:48;;;;;;;;;;;;;;;;;;6276418;28;19909;-87
2023/11/19 15:55:48;;;;;;;;;;;;;;;;;;6277404;28;19908;-87
2023/11/19 15:58:48;;;;;;;;;;;;;;;;;;6293097;28;19910;-87
2023/11/19 16:01:49;;;;;;;;;;;;;;;;;;6296620;28;19936;-87
2023/11/19 16:04:50;;;;;;;;;;;;;;;;;;6275912;28;19917;-87
2023/11/19 16:07:50;;;;;;;;;;;;;;;;;;6277573;28;19920;-87
2023/11/19 16:10:51;;;;;;;;;;;;;;;;;;6276580;28;20308;-88
2023/11/19 16:13:51;;;;;;;;;;;;;;;;;;6294400;28;20361;-87
2023/11/19 16:16:52;;;;;;;;;;;;;;;;;;6300800;28;19913;-86
2023/11/19 16:19:52;;;;;;;;;;;;;;;;;;6299745;28;19920;-87
2023/11/19 16:22:53;;;;;;;;;;;;;;;;;;6301198;28;19925;-87
2023/11/19 16:25:53;;;;;;;;;;;;;;;;;;6301351;28;19920;-87
2023/11/19 16:28:53;;;;;;;;;;;;;;;;;;6293184;28;19920;-87
2023/11/19 16:31:53;;;;;;;;;;;;;;;;;;6292643;28;19924;-87
2023/11/19 16:34:53;;;;;;;;;;;;;;;;;;6299977;28;19955;-88
2023/11/19 16:37:53;;;;;;;;;;;;;;;;;;6301030;28;19951;-88
2023/11/19 16:40:53;;;;;;;;;;;;;;;;;;6283819;28;20033;-88
2023/11/19 16:43:55;;;;;;;;;;;;;;;;;;6252380;28;19913;-88
2023/11/19 16:46:55;;;;;;;;;;;;;;;;;;6253493;28;19917;-88
2023/11/19 16:49:56;;;;;;;;;;;;;;;;;;6253025;28;20007;-89
2023/11/19 16:52:56;;;;;;;;;;;;;;;;;;6290779;28;20366;-88
2023/11/19 16:55:56;;;;;;;;;;;;;;;;;;6252857;28;19924;-88
2023/11/19 16:58:56;;;;;;;;;;;;;;;;;;6251606;28;19916;-88
2023/11/19 17:01:56;;;;;;;;;;;;;;;;;;6273670;28;19925;-84
2023/11/19 17:04:56;;;;;;;;;;;;;;;;;;6270570;28;19921;-84
2023/11/19 17:07:56;;;;;;;;;;;;;;;;;;6289700;28;20380;-84
2023/11/19 17:10:57;;;;;;;;;;;;;;;;;;6274477;28;19960;-84
2023/11/19 17:13:57;;;;;;;;;;;;;;;;;;6287912;28;19913;-84
2023/11/19 17:16:57;;;;;;;;;;;;;;;;;;6272658;28;20368;-84
2023/11/19 17:19:57;;;;;;;;;;;;;;;;;;6271566;28;20035;-84
2023/11/19 17:22:58;;;;;;;;;;;;;;;;;;6278675;28;19914;-84
2023/11/19 17:25:58;;;;;;;;;;;;;;;;;;6248992;28;19917;-84
2023/11/19 17:28:58;;;;;;;;;;;;;;;;;;6272161;28;20330;-84
2023/11/19 17:31:58;;;;;;;;;;;;;;;;;;6271933;28;20377;-84
2023/11/19 17:34:59;;;;;;;;;;;;;;;;;;6272438;28;19959;-84
2023/11/19 17:37:59;;;;;;;;;;;;;;;;;;6273417;28;19909;-84
2023/11/19 17:40:59;;;;;;;;;;;;;;;;;;6265175;28;19921;-84
2023/11/19 17:43:59;;;;;;;;;;;;;;;;;;6253025;28;20421;-84
2023/11/19 17:46:59;;;;;;;;;;;;;;;;;;6263496;28;20366;-84
2023/11/19 17:49:59;;;;;;;;;;;;;;;;;;6247864;28;19913;-84
2023/11/19 17:52:59;;;;;;;;;;;;;;;;;;6280086;28;20398;-84
2023/11/19 17:55:59;;;;;;;;;;;;;;;;;;6249264;28;19909;-84
2023/11/19 17:59:00;;;;;;;;;;;;;;;;;;6248849;28;20354;-84
2023/11/19 18:02:02;;;;;;;;;;;;;;;;;;6254016;28;19939;-84
2023/11/19 18:05:02;;;;;;;;;;;;;;;;;;6270738;28;20352;-84
2023/11/19 18:08:04;;;;;;;;;;;;;;;;;;6287956;28;19921;-85
2023/11/19 18:11:05;;;;;;;;;;;;;;;;;;6273147;28;19913;-84
2023/11/19 18:14:05;;;;;;;;;;;;;;;;;;6281912;28;20079;-84
2023/11/19 18:17:05;;;;;;;;;;;;;;;;;;6272761;28;19951;-84
2023/11/19 18:20:07;;;;;;;;;;;;;;;;;;6271455;28;19921;-85
2023/11/19 18:23:07;;;;;;;;;;;;;;;;;;6272058;28;19913;-84
2023/11/19 18:26:07;;;;;;;;;;;;;;;;;;6272522;28;19966;-84
2023/11/19 18:29:08;;;;;;;;;;;;;;;;;;6273060;28;20004;-85
2023/11/19 18:32:09;;;;;;;;;;;;;;;;;;6258864;28;19928;-85
2023/11/19 18:35:11;;;;;;;;;;;;;;;;;;6261893;28;19909;-84
2023/11/19 18:38:11;;;;;;;;;;;;;;;;;;6250621;28;19915;-85
2023/11/19 18:41:12;;;;;;;;;;;;;;;;;;6293103;28;19920;-84
2023/11/19 18:44:13;;;;;;;;;;;;;;;;;;6302507;28;19955;-85
2023/11/19 18:47:14;;;;;;;;;;;;;;;;;;6291660;28;20330;-84
2023/11/19 18:50:15;;;;;;;;;;;;;;;;;;6288741;28;19913;-84
2023/11/19 18:53:15;;;;;;;;;;;;;;;;;;6276363;28;19909;-85
2023/11/19 18:56:16;;;;;;;;;;;;;;;;;;6277689;28;19913;-85
2023/11/19 18:59:17;;;;;;;;;;;;;;;;;;6277751;28;19909;-85
2023/11/19 19:02:17;;;;;;;;;;;;;;;;;;6285752;28;19959;-85
2023/11/19 19:05:17;;;;;;;;;;;;;;;;;;6298136;28;19913;-85
2023/11/19 19:08:17;;;;;;;;;;;;;;;;;;6277848;28;19990;-84
2023/11/19 19:11:18;;;;;;;;;;;;;;;;;;6277608;28;19909;-85
2023/11/19 19:14:18;;;;;;;;;;;;;;;;;;6307259;28;20399;-84
2023/11/19 19:17:19;;;;;;;;;;;;;;;;;;6277051;28;19923;-85
2023/11/19 19:20:19;;;;;;;;;;;;;;;;;;6305987;28;19909;-88
2023/11/19 19:23:19;;;;;;;;;;;;;;;;;;6302247;28;20365;-88
2023/11/19 19:26:19;;;;;;;;;;;;;;;;;;6302854;28;19979;-89
2023/11/19 19:29:19;;;;;;;;;;;;;;;;;;6301445;28;20011;-88
2023/11/19 19:32:20;;;;;;;;;;;;;;;;;;6274142;28;19913;-89
2023/11/19 19:35:22;;;;;;;;;;;;;;;;;;6298665;28;19909;-88
2023/11/19 19:38:23;;;;;;;;;;;;;;;;;;6282978;28;19966;-90
2023/11/19 19:41:23;;;;;;;;;;;;;;;;;;6301191;28;19932;-88
2023/11/19 19:44:23;;;;;;;;;;;;;;;;;;6304244;28;20041;-89
2023/11/19 19:47:23;;;;;;;;;;;;;;;;;;6304281;28;20015;-88
2023/11/19 19:50:23;;;;;;;;;;;;;;;;;;6283753;28;19921;-89
2023/11/19 19:53:23;;;;;;;;;;;;;;;;;;6278432;28;19909;-88
2023/11/19 19:56:24;;;;;;;;;;;;;;;;;;6293435;28;19908;-89
2023/11/19 19:59:24;;;;;;;;;;;;;;;;;;6304463;28;19967;-89
2023/11/19 20:02:24;;;;;;;;;;;;;;;;;;6288627;28;19912;-88
2023/11/19 20:05:24;;;;;;;;;;;;;;;;;;6312805;28;19913;-89
2023/11/19 20:08:24;;;;;;;;;;;;;;;;;;6300086;28;19923;-89
2023/11/19 20:11:26;;;;;;;;;;;;;;;;;;6301682;28;19916;-89
2023/11/19 20:14:27;;;;;;;;;;;;;;;;;;6281980;28;20003;-89
2023/11/19 20:17:28;;;;;;;;;;;;;;;;;;6300483;28;19909;-89
2023/11/19 20:20:28;;;;;;;;;;;;;;;;;;6299932;28;20321;-88
2023/11/19 20:23:28;;;;;;;;;;;;;;;;;;6301426;28;19952;-89
2023/11/19 20:26:28;;;;;;;;;;;;;;;;;;6299883;28;19921;-89
2023/11/19 20:29:28;;;;;;;;;;;;;;;;;;6295245;28;19920;-89
2023/11/19 20:32:28;;;;;;;;;;;;;;;;;;6300046;28;19912;-88